GEC220 KMEM-KMIA
Flight info
| Callsign | GEC220 |
|---|---|
| Flight time | 1h 52m |
| Altitude | 39000 |
| Route | BBKNG7 KERMI MGMRY ACORI FROGZ5 |
| Aircraft | B77L/H-SDE1E2E3FGHIJ2J3J4J5M1RWXY/LB1D1 |
Departure
| Time | 2026-05-06 19:41 |
|---|---|
| Airport | Memphis International Airport (KMEM) |
Arrival
| Time | 2026-05-06 21:33 |
|---|---|
| Airport | Miami International Airport (KMIA) |
| Time | Latitude | Longitude | Altitude | Speed | Heading |
|---|---|---|---|---|---|
| 2026-05-06 19:03 | 35.06290 | -89.98025 | 335 ft | 0 kts | 182° |
| 2026-05-06 19:21 | 35.06299 | -89.98024 | 331 ft | 4 kts | 182° |
| 2026-05-06 19:21 | 35.06326 | -89.98023 | 334 ft | 4 kts | 182° |
| 2026-05-06 19:21 | 35.06346 | -89.98023 | 335 ft | 4 kts | 150° |
| 2026-05-06 19:21 | 35.06356 | -89.98043 | 335 ft | 3 kts | 92° |
| 2026-05-06 19:22 | 35.06356 | -89.98074 | 330 ft | 2 kts | 92° |
| 2026-05-06 19:22 | 35.06357 | -89.98076 | 335 ft | 0 kts | 92° |
| 2026-05-06 19:26 | 35.06355 | -89.98023 | 331 ft | 13 kts | 92° |
| 2026-05-06 19:27 | 35.06352 | -89.97904 | 334 ft | 14 kts | 92° |
| 2026-05-06 19:27 | 35.06339 | -89.97801 | 331 ft | 8 kts | 139° |
| 2026-05-06 19:27 | 35.06285 | -89.97789 | 333 ft | 9 kts | 178° |
| 2026-05-06 19:27 | 35.06221 | -89.97788 | 334 ft | 10 kts | 179° |
| 2026-05-06 19:28 | 35.06148 | -89.97787 | 332 ft | 11 kts | 179° |
| 2026-05-06 19:28 | 35.06069 | -89.97786 | 332 ft | 12 kts | 180° |
| 2026-05-06 19:28 | 35.05982 | -89.97786 | 330 ft | 13 kts | 180° |
| 2026-05-06 19:28 | 35.05891 | -89.97785 | 332 ft | 13 kts | 179° |
| 2026-05-06 19:29 | 35.05799 | -89.97784 | 337 ft | 14 kts | 179° |
| 2026-05-06 19:29 | 35.05666 | -89.97783 | 333 ft | 26 kts | 180° |
| 2026-05-06 19:29 | 35.05504 | -89.97782 | 329 ft | 11 kts | 179° |
| 2026-05-06 19:29 | 35.05446 | -89.97738 | 328 ft | 11 kts | 104° |
| 2026-05-06 19:30 | 35.05445 | -89.97610 | 329 ft | 19 kts | 90° |
| 2026-05-06 19:30 | 35.05409 | -89.97489 | 327 ft | 15 kts | 159° |
| 2026-05-06 19:30 | 35.05300 | -89.97481 | 328 ft | 16 kts | 179° |
| 2026-05-06 19:30 | 35.05189 | -89.97479 | 328 ft | 16 kts | 179° |
| 2026-05-06 19:31 | 35.05077 | -89.97476 | 329 ft | 16 kts | 179° |
| 2026-05-06 19:31 | 35.04936 | -89.97473 | 328 ft | 24 kts | 179° |
| 2026-05-06 19:31 | 35.04599 | -89.97466 | 331 ft | 24 kts | 179° |
| 2026-05-06 19:32 | 35.04431 | -89.97463 | 329 ft | 24 kts | 179° |
| 2026-05-06 19:32 | 35.04263 | -89.97459 | 331 ft | 24 kts | 179° |
| 2026-05-06 19:32 | 35.04094 | -89.97456 | 328 ft | 24 kts | 179° |
| 2026-05-06 19:32 | 35.03926 | -89.97452 | 331 ft | 24 kts | 179° |
| 2026-05-06 19:33 | 35.03758 | -89.97449 | 330 ft | 24 kts | 179° |
| 2026-05-06 19:33 | 35.03588 | -89.97445 | 328 ft | 24 kts | 179° |
| 2026-05-06 19:33 | 35.03417 | -89.97441 | 328 ft | 24 kts | 179° |
| 2026-05-06 19:33 | 35.03246 | -89.97438 | 329 ft | 24 kts | 179° |
| 2026-05-06 19:34 | 35.03076 | -89.97435 | 329 ft | 24 kts | 179° |
| 2026-05-06 19:34 | 35.02906 | -89.97431 | 329 ft | 24 kts | 179° |
| 2026-05-06 19:34 | 35.02746 | -89.97427 | 333 ft | 20 kts | 179° |
| 2026-05-06 19:34 | 35.02612 | -89.97425 | 331 ft | 15 kts | 179° |
| 2026-05-06 19:35 | 35.02519 | -89.97423 | 333 ft | 9 kts | 179° |
| 2026-05-06 19:35 | 35.02454 | -89.97421 | 330 ft | 9 kts | 179° |
| 2026-05-06 19:35 | 35.02427 | -89.97436 | 328 ft | 1 kts | 240° |
| 2026-05-06 19:40 | 35.02416 | -89.97490 | 329 ft | 15 kts | 266° |
| 2026-05-06 19:40 | 35.02472 | -89.97555 | 327 ft | 10 kts | 359° |
| 2026-05-06 19:40 | 35.02479 | -89.97555 | 328 ft | 0 kts | 359° |
| 2026-05-06 19:40 | 35.02556 | -89.97557 | 326 ft | 50 kts | 359° |
| 2026-05-06 19:41 | 35.03290 | -89.97573 | 325 ft | 157 kts | 359° |
| 2026-05-06 19:41 | 35.04545 | -89.97601 | 1039 ft | 187 kts | 359° |
| 2026-05-06 19:41 | 35.05880 | -89.97656 | 2134 ft | 198 kts | 358° |
| 2026-05-06 19:41 | 35.07339 | -89.97567 | 2629 ft | 228 kts | 14° |
| 2026-05-06 19:42 | 35.08816 | -89.96648 | 3268 ft | 246 kts | 31° |
| 2026-05-06 19:42 | 35.10324 | -89.95554 | 4239 ft | 258 kts | 29° |
| 2026-05-06 19:42 | 35.11867 | -89.94377 | 5248 ft | 267 kts | 40° |
| 2026-05-06 19:42 | 35.13042 | -89.92571 | 6242 ft | 278 kts | 60° |
| 2026-05-06 19:43 | 35.14021 | -89.90489 | 7121 ft | 287 kts | 56° |
| 2026-05-06 19:43 | 35.14922 | -89.88285 | 7929 ft | 296 kts | 79° |
| 2026-05-06 19:43 | 35.14887 | -89.85799 | 9037 ft | 293 kts | 99° |
| 2026-05-06 19:43 | 35.14628 | -89.83320 | 9905 ft | 302 kts | 99° |
| 2026-05-06 19:44 | 35.14001 | -89.80808 | 10550 ft | 314 kts | 119° |
| 2026-05-06 19:44 | 35.12998 | -89.78369 | 10802 ft | 347 kts | 116° |
| 2026-05-06 19:44 | 35.12081 | -89.75480 | 11388 ft | 370 kts | 111° |
| 2026-05-06 19:44 | 35.11173 | -89.72456 | 12405 ft | 379 kts | 115° |
| 2026-05-06 19:45 | 35.10082 | -89.69489 | 13540 ft | 385 kts | 118° |
| 2026-05-06 19:45 | 35.08911 | -89.66514 | 14654 ft | 392 kts | 119° |
| 2026-05-06 19:45 | 35.07709 | -89.63489 | 15599 ft | 401 kts | 119° |
| 2026-05-06 19:45 | 35.06504 | -89.60443 | 16022 ft | 407 kts | 119° |
| 2026-05-06 19:46 | 35.05260 | -89.57257 | 15993 ft | 411 kts | 118° |
| 2026-05-06 19:46 | 35.04057 | -89.54129 | 15995 ft | 408 kts | 118° |
| 2026-05-06 19:46 | 35.02859 | -89.50996 | 15994 ft | 406 kts | 118° |
| 2026-05-06 19:46 | 35.01667 | -89.47880 | 15993 ft | 406 kts | 118° |
| 2026-05-06 19:47 | 35.00474 | -89.44761 | 15995 ft | 406 kts | 118° |
| 2026-05-06 19:47 | 34.99297 | -89.41680 | 15995 ft | 407 kts | 118° |
| 2026-05-06 19:47 | 34.98097 | -89.38551 | 16155 ft | 410 kts | 118° |
| 2026-05-06 19:47 | 34.96877 | -89.35380 | 17168 ft | 415 kts | 118° |
| 2026-05-06 19:48 | 34.95648 | -89.32175 | 18245 ft | 419 kts | 118° |
| 2026-05-06 19:48 | 34.94400 | -89.28932 | 19212 ft | 426 kts | 119° |
| 2026-05-06 19:48 | 34.93127 | -89.25629 | 20075 ft | 434 kts | 119° |
| 2026-05-06 19:48 | 34.91819 | -89.22225 | 20950 ft | 441 kts | 118° |
| 2026-05-06 19:49 | 34.90797 | -89.18724 | 21732 ft | 452 kts | 107° |
| 2026-05-06 19:49 | 34.90159 | -89.14939 | 22521 ft | 459 kts | 103° |
| 2026-05-06 19:49 | 34.89570 | -89.11033 | 23343 ft | 465 kts | 103° |
| 2026-05-06 19:49 | 34.88980 | -89.07196 | 24120 ft | 471 kts | 103° |
| 2026-05-06 19:50 | 34.88350 | -89.03253 | 24868 ft | 477 kts | 103° |
| 2026-05-06 19:50 | 34.87694 | -88.99265 | 25604 ft | 483 kts | 104° |
| 2026-05-06 19:50 | 34.87006 | -88.95185 | 26339 ft | 489 kts | 104° |
| 2026-05-06 19:50 | 34.86322 | -88.91165 | 27028 ft | 494 kts | 104° |
| 2026-05-06 19:51 | 34.85615 | -88.87052 | 27710 ft | 499 kts | 104° |
| 2026-05-06 19:51 | 34.84897 | -88.82895 | 28377 ft | 504 kts | 104° |
| 2026-05-06 19:51 | 34.84172 | -88.78700 | 29003 ft | 509 kts | 104° |
| 2026-05-06 19:51 | 34.83438 | -88.74457 | 29622 ft | 515 kts | 104° |
| 2026-05-06 19:52 | 34.82698 | -88.70171 | 30230 ft | 519 kts | 104° |
| 2026-05-06 19:52 | 34.81950 | -88.65847 | 30825 ft | 524 kts | 104° |
| 2026-05-06 19:52 | 34.81193 | -88.61497 | 31340 ft | 528 kts | 104° |
| 2026-05-06 19:52 | 34.80426 | -88.57110 | 31800 ft | 533 kts | 104° |
| 2026-05-06 19:53 | 34.79654 | -88.52689 | 32260 ft | 536 kts | 104° |
| 2026-05-06 19:53 | 34.78877 | -88.48245 | 32865 ft | 536 kts | 104° |
| 2026-05-06 19:53 | 34.78106 | -88.43826 | 33550 ft | 533 kts | 104° |
| 2026-05-06 19:53 | 34.77586 | -88.40849 | 33971 ft | 532 kts | 104° |
| 2026-05-06 19:54 | 34.76823 | -88.36509 | 34530 ft | 532 kts | 104° |
| 2026-05-06 19:54 | 34.76048 | -88.32114 | 35065 ft | 532 kts | 104° |
| 2026-05-06 19:54 | 34.75268 | -88.27708 | 35560 ft | 533 kts | 104° |
| 2026-05-06 19:54 | 34.74485 | -88.23302 | 36045 ft | 533 kts | 104° |
| 2026-05-06 19:55 | 34.73433 | -88.19018 | 36364 ft | 528 kts | 118° |
| 2026-05-06 19:55 | 34.71528 | -88.15243 | 36692 ft | 521 kts | 134° |
| 2026-05-06 19:55 | 34.68994 | -88.12189 | 37173 ft | 508 kts | 149° |
| 2026-05-06 19:55 | 34.66053 | -88.09959 | 37641 ft | 495 kts | 156° |
| 2026-05-06 19:56 | 34.63078 | -88.07844 | 38056 ft | 496 kts | 156° |
| 2026-05-06 19:56 | 34.60120 | -88.05685 | 38532 ft | 495 kts | 155° |
| 2026-05-06 19:56 | 34.57190 | -88.03510 | 38946 ft | 494 kts | 155° |
| 2026-05-06 19:56 | 34.54247 | -88.01304 | 38983 ft | 500 kts | 155° |
| 2026-05-06 19:57 | 34.48322 | -87.96842 | 38982 ft | 501 kts | 154° |
| 2026-05-06 19:57 | 34.42441 | -87.92402 | 38978 ft | 495 kts | 155° |
| 2026-05-06 19:58 | 34.36587 | -87.88006 | 38981 ft | 495 kts | 155° |
| 2026-05-06 19:58 | 34.30734 | -87.83628 | 38986 ft | 495 kts | 155° |
| 2026-05-06 19:59 | 34.24878 | -87.79252 | 38982 ft | 495 kts | 155° |
| 2026-05-06 19:59 | 34.19008 | -87.74871 | 38985 ft | 496 kts | 155° |
| 2026-05-06 20:00 | 34.13133 | -87.70493 | 38986 ft | 497 kts | 155° |
| 2026-05-06 20:00 | 34.07246 | -87.66117 | 38974 ft | 498 kts | 155° |
| 2026-05-06 20:01 | 34.01347 | -87.61735 | 38970 ft | 499 kts | 155° |
| 2026-05-06 20:01 | 33.95433 | -87.57352 | 38968 ft | 498 kts | 155° |
| 2026-05-06 20:02 | 33.89530 | -87.52982 | 38975 ft | 498 kts | 155° |
| 2026-05-06 20:02 | 33.83629 | -87.48621 | 38971 ft | 498 kts | 155° |
| 2026-05-06 20:03 | 33.78918 | -87.45145 | 38972 ft | 497 kts | 155° |
| 2026-05-06 20:04 | 33.73319 | -87.41018 | 38966 ft | 497 kts | 155° |
| 2026-05-06 20:04 | 33.67433 | -87.36689 | 38978 ft | 496 kts | 155° |
| 2026-05-06 20:05 | 33.61581 | -87.32390 | 38975 ft | 497 kts | 155° |
| 2026-05-06 20:05 | 33.55683 | -87.28068 | 38979 ft | 496 kts | 155° |
| 2026-05-06 20:06 | 33.49813 | -87.23770 | 38984 ft | 496 kts | 155° |
| 2026-05-06 20:06 | 33.43927 | -87.19467 | 38990 ft | 495 kts | 154° |
| 2026-05-06 20:07 | 33.38051 | -87.15181 | 38999 ft | 495 kts | 154° |
| 2026-05-06 20:07 | 33.32166 | -87.10889 | 39008 ft | 495 kts | 154° |
| 2026-05-06 20:08 | 33.26278 | -87.06606 | 39004 ft | 495 kts | 154° |
| 2026-05-06 20:08 | 33.20386 | -87.02330 | 38999 ft | 495 kts | 154° |
| 2026-05-06 20:09 | 33.14501 | -86.98065 | 38997 ft | 495 kts | 154° |
| 2026-05-06 20:09 | 33.08620 | -86.93811 | 38997 ft | 494 kts | 154° |
| 2026-05-06 20:10 | 33.02748 | -86.89558 | 39000 ft | 493 kts | 154° |
| 2026-05-06 20:10 | 32.96878 | -86.85323 | 38994 ft | 493 kts | 154° |
| 2026-05-06 20:11 | 32.91015 | -86.81101 | 39001 ft | 492 kts | 154° |
| 2026-05-06 20:11 | 32.85150 | -86.76883 | 38995 ft | 493 kts | 154° |
| 2026-05-06 20:12 | 32.79324 | -86.72698 | 39014 ft | 493 kts | 154° |
| 2026-05-06 20:12 | 32.73411 | -86.68456 | 39007 ft | 493 kts | 154° |
| 2026-05-06 20:13 | 32.67571 | -86.64274 | 39008 ft | 494 kts | 154° |
| 2026-05-06 20:13 | 32.61689 | -86.60068 | 39004 ft | 494 kts | 154° |
| 2026-05-06 20:14 | 32.55803 | -86.55869 | 39018 ft | 494 kts | 154° |
| 2026-05-06 20:14 | 32.49919 | -86.51674 | 39011 ft | 493 kts | 154° |
| 2026-05-06 20:15 | 32.44041 | -86.47492 | 39004 ft | 493 kts | 154° |
| 2026-05-06 20:15 | 32.38159 | -86.43315 | 39005 ft | 492 kts | 154° |
| 2026-05-06 20:16 | 32.32287 | -86.39145 | 38994 ft | 492 kts | 154° |
| 2026-05-06 20:16 | 32.26425 | -86.34987 | 39011 ft | 491 kts | 154° |
| 2026-05-06 20:17 | 32.20699 | -86.30560 | 39027 ft | 495 kts | 146° |
| 2026-05-06 20:17 | 32.15492 | -86.25197 | 39018 ft | 497 kts | 142° |
| 2026-05-06 20:18 | 32.10325 | -86.19761 | 39026 ft | 498 kts | 143° |
| 2026-05-06 20:18 | 32.05136 | -86.14369 | 39011 ft | 498 kts | 143° |
| 2026-05-06 20:19 | 31.99958 | -86.09040 | 39027 ft | 497 kts | 143° |
| 2026-05-06 20:19 | 31.94746 | -86.03683 | 39029 ft | 497 kts | 143° |
| 2026-05-06 20:20 | 31.89535 | -85.98334 | 39027 ft | 497 kts | 143° |
| 2026-05-06 20:20 | 31.84320 | -85.92988 | 39028 ft | 498 kts | 143° |
| 2026-05-06 20:21 | 31.79098 | -85.87640 | 39026 ft | 498 kts | 143° |
| 2026-05-06 20:21 | 31.74073 | -85.82057 | 39036 ft | 501 kts | 137° |
| 2026-05-06 20:22 | 31.69441 | -85.75902 | 39018 ft | 503 kts | 134° |
| 2026-05-06 20:22 | 31.64859 | -85.69705 | 39028 ft | 503 kts | 135° |
| 2026-05-06 20:23 | 31.61449 | -85.65200 | 39018 ft | 502 kts | 135° |
| 2026-05-06 20:23 | 31.59222 | -85.62296 | 39009 ft | 502 kts | 136° |
| 2026-05-06 20:24 | 31.54540 | -85.56236 | 39025 ft | 501 kts | 136° |
| 2026-05-06 20:24 | 31.49846 | -85.50189 | 39031 ft | 501 kts | 136° |
| 2026-05-06 20:25 | 31.45190 | -85.44184 | 39037 ft | 501 kts | 136° |
| 2026-05-06 20:25 | 31.40486 | -85.38122 | 39068 ft | 500 kts | 136° |
| 2026-05-06 20:26 | 31.35805 | -85.32100 | 39079 ft | 500 kts | 136° |
| 2026-05-06 20:26 | 31.31121 | -85.26086 | 39065 ft | 500 kts | 135° |
| 2026-05-06 20:27 | 31.26463 | -85.20117 | 39059 ft | 500 kts | 135° |
| 2026-05-06 20:27 | 31.21774 | -85.14110 | 39063 ft | 500 kts | 135° |
| 2026-05-06 20:28 | 31.17078 | -85.08105 | 39058 ft | 501 kts | 135° |
| 2026-05-06 20:28 | 31.12379 | -85.02110 | 39056 ft | 500 kts | 135° |
| 2026-05-06 20:29 | 31.07680 | -84.96123 | 39051 ft | 500 kts | 135° |
| 2026-05-06 20:29 | 31.02970 | -84.90136 | 39046 ft | 501 kts | 135° |
| 2026-05-06 20:30 | 30.95923 | -84.81183 | 39048 ft | 499 kts | 135° |
| 2026-05-06 20:31 | 30.91223 | -84.75230 | 39059 ft | 499 kts | 135° |
| 2026-05-06 20:31 | 30.86521 | -84.69287 | 39055 ft | 499 kts | 135° |
| 2026-05-06 20:32 | 30.81816 | -84.63339 | 39057 ft | 500 kts | 135° |
| 2026-05-06 20:32 | 30.77103 | -84.57394 | 39062 ft | 500 kts | 135° |
| 2026-05-06 20:33 | 30.72412 | -84.51486 | 39065 ft | 500 kts | 135° |
| 2026-05-06 20:33 | 30.67689 | -84.45550 | 39068 ft | 501 kts | 135° |
| 2026-05-06 20:34 | 30.62949 | -84.39602 | 39074 ft | 501 kts | 135° |
| 2026-05-06 20:34 | 30.58219 | -84.33673 | 39063 ft | 500 kts | 135° |
| 2026-05-06 20:35 | 30.53488 | -84.27750 | 39069 ft | 500 kts | 135° |
| 2026-05-06 20:35 | 30.48756 | -84.21830 | 39062 ft | 501 kts | 135° |
| 2026-05-06 20:36 | 30.44016 | -84.15918 | 39065 ft | 500 kts | 135° |
| 2026-05-06 20:36 | 30.39279 | -84.10015 | 39065 ft | 500 kts | 135° |
| 2026-05-06 20:37 | 30.33962 | -84.05023 | 39085 ft | 489 kts | 154° |
| 2026-05-06 20:37 | 30.27988 | -84.01239 | 39073 ft | 490 kts | 155° |
| 2026-05-06 20:38 | 30.22007 | -83.97423 | 39076 ft | 492 kts | 154° |
| 2026-05-06 20:38 | 30.16045 | -83.93506 | 39074 ft | 494 kts | 154° |
| 2026-05-06 20:39 | 30.10087 | -83.89556 | 39081 ft | 494 kts | 153° |
| 2026-05-06 20:39 | 30.04115 | -83.85602 | 39085 ft | 495 kts | 154° |
| 2026-05-06 20:40 | 29.98141 | -83.81658 | 39083 ft | 495 kts | 154° |
| 2026-05-06 20:40 | 29.92161 | -83.77720 | 39085 ft | 495 kts | 154° |
| 2026-05-06 20:41 | 29.86183 | -83.73786 | 39093 ft | 494 kts | 154° |
| 2026-05-06 20:41 | 29.80264 | -83.69894 | 39084 ft | 494 kts | 154° |
| 2026-05-06 20:42 | 29.74293 | -83.65979 | 39084 ft | 493 kts | 154° |
| 2026-05-06 20:42 | 29.68330 | -83.62079 | 39081 ft | 493 kts | 154° |
| 2026-05-06 20:43 | 29.62374 | -83.58184 | 39082 ft | 493 kts | 154° |
| 2026-05-06 20:43 | 29.61341 | -83.57509 | 39081 ft | 493 kts | 154° |
| 2026-05-06 20:44 | 29.58931 | -83.55934 | 39083 ft | 493 kts | 154° |
| 2026-05-06 20:44 | 29.52968 | -83.52042 | 39073 ft | 493 kts | 154° |
| 2026-05-06 20:45 | 29.47005 | -83.48155 | 39072 ft | 492 kts | 154° |
| 2026-05-06 20:45 | 29.41055 | -83.44281 | 39071 ft | 492 kts | 154° |
| 2026-05-06 20:46 | 29.35087 | -83.40401 | 39074 ft | 493 kts | 154° |
| 2026-05-06 20:46 | 29.29132 | -83.36535 | 39078 ft | 493 kts | 153° |
| 2026-05-06 20:47 | 29.23108 | -83.32773 | 39073 ft | 491 kts | 158° |
| 2026-05-06 20:47 | 29.16880 | -83.29604 | 39074 ft | 490 kts | 160° |
| 2026-05-06 20:48 | 29.10595 | -83.26562 | 39078 ft | 490 kts | 160° |
| 2026-05-06 20:48 | 29.04330 | -83.23452 | 39074 ft | 491 kts | 159° |
| 2026-05-06 20:49 | 28.98074 | -83.20296 | 39083 ft | 491 kts | 159° |
| 2026-05-06 20:49 | 28.91827 | -83.17137 | 39082 ft | 492 kts | 159° |
| 2026-05-06 20:50 | 28.85572 | -83.13974 | 39082 ft | 492 kts | 159° |
| 2026-05-06 20:50 | 28.79371 | -83.10850 | 39083 ft | 491 kts | 159° |
| 2026-05-06 20:51 | 28.73098 | -83.07692 | 39072 ft | 492 kts | 159° |
| 2026-05-06 20:51 | 28.66845 | -83.04549 | 39073 ft | 491 kts | 159° |
| 2026-05-06 20:52 | 28.60593 | -83.01411 | 39071 ft | 491 kts | 159° |
| 2026-05-06 20:52 | 28.54346 | -82.98283 | 39072 ft | 491 kts | 159° |
| 2026-05-06 20:53 | 28.48097 | -82.95156 | 39078 ft | 490 kts | 159° |
| 2026-05-06 20:53 | 28.41856 | -82.92037 | 39070 ft | 490 kts | 159° |
| 2026-05-06 20:54 | 28.35609 | -82.88918 | 39068 ft | 490 kts | 159° |
| 2026-05-06 20:54 | 28.29363 | -82.85803 | 39064 ft | 490 kts | 159° |
| 2026-05-06 20:55 | 28.23122 | -82.82691 | 39067 ft | 490 kts | 159° |
| 2026-05-06 20:55 | 28.16876 | -82.79586 | 39064 ft | 490 kts | 159° |
| 2026-05-06 20:56 | 28.10623 | -82.76479 | 39066 ft | 491 kts | 159° |
| 2026-05-06 20:56 | 28.04369 | -82.73375 | 39063 ft | 491 kts | 159° |
| 2026-05-06 20:57 | 27.97979 | -82.70798 | 39068 ft | 484 kts | 172° |
| 2026-05-06 20:57 | 27.91337 | -82.69603 | 39063 ft | 483 kts | 175° |
| 2026-05-06 20:58 | 27.84694 | -82.68477 | 39066 ft | 484 kts | 174° |
| 2026-05-06 20:58 | 27.78060 | -82.67213 | 39066 ft | 484 kts | 173° |
| 2026-05-06 20:59 | 27.71416 | -82.65895 | 39057 ft | 485 kts | 173° |
| 2026-05-06 20:59 | 27.64778 | -82.64583 | 39051 ft | 484 kts | 173° |
| 2026-05-06 21:00 | 27.58139 | -82.63278 | 39053 ft | 484 kts | 173° |
| 2026-05-06 21:00 | 27.51552 | -82.61937 | 39064 ft | 485 kts | 171° |
| 2026-05-06 21:01 | 27.45002 | -82.60066 | 39070 ft | 486 kts | 167° |
| 2026-05-06 21:01 | 27.38484 | -82.58039 | 39077 ft | 486 kts | 167° |
| 2026-05-06 21:02 | 27.31943 | -82.56067 | 39073 ft | 486 kts | 168° |
| 2026-05-06 21:02 | 27.25410 | -82.54150 | 38912 ft | 483 kts | 168° |
| 2026-05-06 21:02 | 27.22157 | -82.53200 | 38440 ft | 481 kts | 168° |
| 2026-05-06 21:03 | 27.18938 | -82.52260 | 38031 ft | 475 kts | 168° |
| 2026-05-06 21:03 | 27.17205 | -82.51754 | 37804 ft | 472 kts | 168° |
| 2026-05-06 21:04 | 27.14454 | -82.50950 | 37439 ft | 468 kts | 168° |
| 2026-05-06 21:04 | 27.11319 | -82.50033 | 37029 ft | 463 kts | 168° |
| 2026-05-06 21:04 | 27.08220 | -82.49129 | 36621 ft | 458 kts | 168° |
| 2026-05-06 21:04 | 27.05151 | -82.48233 | 36216 ft | 453 kts | 168° |
| 2026-05-06 21:05 | 27.02117 | -82.47348 | 35813 ft | 449 kts | 168° |
| 2026-05-06 21:05 | 26.99096 | -82.46467 | 35394 ft | 445 kts | 168° |
| 2026-05-06 21:05 | 26.96118 | -82.45600 | 34979 ft | 441 kts | 168° |
| 2026-05-06 21:05 | 26.93158 | -82.44724 | 34566 ft | 437 kts | 165° |
| 2026-05-06 21:06 | 26.90398 | -82.43331 | 34137 ft | 438 kts | 146° |
| 2026-05-06 21:06 | 26.88087 | -82.41166 | 33787 ft | 431 kts | 139° |
| 2026-05-06 21:06 | 26.85849 | -82.38935 | 33386 ft | 429 kts | 140° |
| 2026-05-06 21:06 | 26.83621 | -82.36738 | 32979 ft | 426 kts | 140° |
| 2026-05-06 21:07 | 26.81390 | -82.34565 | 32592 ft | 423 kts | 140° |
| 2026-05-06 21:07 | 26.79169 | -82.32420 | 32199 ft | 420 kts | 140° |
| 2026-05-06 21:07 | 26.76964 | -82.30302 | 31814 ft | 417 kts | 140° |
| 2026-05-06 21:07 | 26.74762 | -82.28191 | 31432 ft | 415 kts | 140° |
| 2026-05-06 21:08 | 26.72577 | -82.26101 | 31031 ft | 412 kts | 140° |
| 2026-05-06 21:08 | 26.70405 | -82.24023 | 30646 ft | 409 kts | 140° |
| 2026-05-06 21:08 | 26.68249 | -82.21963 | 30262 ft | 407 kts | 140° |
| 2026-05-06 21:08 | 26.66104 | -82.19913 | 29874 ft | 404 kts | 140° |
| 2026-05-06 21:09 | 26.64002 | -82.17905 | 29494 ft | 402 kts | 140° |
| 2026-05-06 21:09 | 26.61883 | -82.15881 | 29105 ft | 400 kts | 140° |
| 2026-05-06 21:09 | 26.59773 | -82.13867 | 28725 ft | 398 kts | 140° |
| 2026-05-06 21:09 | 26.57678 | -82.11867 | 28339 ft | 395 kts | 140° |
| 2026-05-06 21:10 | 26.55592 | -82.09878 | 27960 ft | 393 kts | 140° |
| 2026-05-06 21:10 | 26.53515 | -82.07900 | 27575 ft | 391 kts | 140° |
| 2026-05-06 21:10 | 26.51465 | -82.05909 | 27193 ft | 389 kts | 139° |
| 2026-05-06 21:10 | 26.49455 | -82.03891 | 26819 ft | 387 kts | 138° |
| 2026-05-06 21:11 | 26.47471 | -82.01875 | 26449 ft | 386 kts | 138° |
| 2026-05-06 21:11 | 26.45493 | -81.99865 | 26077 ft | 383 kts | 138° |
| 2026-05-06 21:11 | 26.43522 | -81.97871 | 25707 ft | 381 kts | 138° |
| 2026-05-06 21:11 | 26.41561 | -81.95891 | 25335 ft | 379 kts | 138° |
| 2026-05-06 21:12 | 26.39607 | -81.93924 | 24974 ft | 378 kts | 138° |
| 2026-05-06 21:12 | 26.37659 | -81.91965 | 24614 ft | 376 kts | 138° |
| 2026-05-06 21:12 | 26.35723 | -81.90017 | 24255 ft | 374 kts | 138° |
| 2026-05-06 21:12 | 26.33792 | -81.88078 | 23898 ft | 372 kts | 138° |
| 2026-05-06 21:13 | 26.31875 | -81.86153 | 23527 ft | 371 kts | 138° |
| 2026-05-06 21:13 | 26.29966 | -81.84235 | 23182 ft | 369 kts | 138° |
| 2026-05-06 21:13 | 26.28058 | -81.82321 | 22816 ft | 368 kts | 137° |
| 2026-05-06 21:13 | 26.26163 | -81.80421 | 22452 ft | 367 kts | 137° |
| 2026-05-06 21:14 | 26.24284 | -81.78512 | 22080 ft | 363 kts | 134° |
| 2026-05-06 21:14 | 26.22824 | -81.76268 | 21697 ft | 356 kts | 115° |
| 2026-05-06 21:14 | 26.21778 | -81.73783 | 21368 ft | 354 kts | 113° |
| 2026-05-06 21:14 | 26.20737 | -81.71283 | 21006 ft | 357 kts | 113° |
| 2026-05-06 21:15 | 26.19673 | -81.68756 | 20637 ft | 362 kts | 114° |
| 2026-05-06 21:15 | 26.18594 | -81.66225 | 20262 ft | 363 kts | 114° |
| 2026-05-06 21:15 | 26.17501 | -81.63687 | 19890 ft | 361 kts | 114° |
| 2026-05-06 21:15 | 26.16418 | -81.61186 | 19467 ft | 359 kts | 115° |
| 2026-05-06 21:16 | 26.15339 | -81.58704 | 19056 ft | 357 kts | 115° |
| 2026-05-06 21:16 | 26.14264 | -81.56233 | 18678 ft | 354 kts | 115° |
| 2026-05-06 21:16 | 26.13192 | -81.53776 | 18304 ft | 351 kts | 115° |
| 2026-05-06 21:16 | 26.12130 | -81.51342 | 17935 ft | 348 kts | 115° |
| 2026-05-06 21:17 | 26.11078 | -81.48932 | 17557 ft | 345 kts | 114° |
| 2026-05-06 21:17 | 26.10037 | -81.46545 | 17190 ft | 342 kts | 115° |
| 2026-05-06 21:17 | 26.09005 | -81.44182 | 16826 ft | 338 kts | 114° |
| 2026-05-06 21:17 | 26.07996 | -81.41873 | 16468 ft | 335 kts | 114° |
| 2026-05-06 21:18 | 26.06966 | -81.39523 | 16107 ft | 332 kts | 114° |
| 2026-05-06 21:18 | 26.05983 | -81.37270 | 15743 ft | 328 kts | 114° |
| 2026-05-06 21:18 | 26.04989 | -81.34992 | 15375 ft | 325 kts | 114° |
| 2026-05-06 21:18 | 26.04011 | -81.32747 | 15020 ft | 322 kts | 114° |
| 2026-05-06 21:19 | 26.03046 | -81.30529 | 14666 ft | 319 kts | 114° |
| 2026-05-06 21:19 | 26.02085 | -81.28322 | 14314 ft | 316 kts | 114° |
| 2026-05-06 21:19 | 26.01133 | -81.26140 | 13964 ft | 312 kts | 114° |
| 2026-05-06 21:19 | 26.00189 | -81.23977 | 13621 ft | 310 kts | 114° |
| 2026-05-06 21:20 | 25.99257 | -81.21843 | 13278 ft | 307 kts | 114° |
| 2026-05-06 21:20 | 25.98640 | -81.20431 | 13049 ft | 305 kts | 114° |
| 2026-05-06 21:20 | 25.97411 | -81.17617 | 12595 ft | 300 kts | 114° |
| 2026-05-06 21:20 | 25.96504 | -81.15542 | 12268 ft | 297 kts | 114° |
| 2026-05-06 21:21 | 25.95607 | -81.13492 | 12077 ft | 292 kts | 114° |
| 2026-05-06 21:21 | 25.94703 | -81.11427 | 12056 ft | 303 kts | 114° |
| 2026-05-06 21:21 | 25.93772 | -81.09296 | 12014 ft | 310 kts | 114° |
| 2026-05-06 21:21 | 25.92824 | -81.07143 | 11982 ft | 307 kts | 114° |
| 2026-05-06 21:22 | 25.91900 | -81.05037 | 11577 ft | 300 kts | 114° |
| 2026-05-06 21:22 | 25.91009 | -81.02979 | 10878 ft | 296 kts | 113° |
| 2026-05-06 21:22 | 25.90197 | -81.00881 | 10167 ft | 294 kts | 111° |
| 2026-05-06 21:22 | 25.89429 | -80.98843 | 9822 ft | 277 kts | 112° |
| 2026-05-06 21:23 | 25.88708 | -80.96923 | 9506 ft | 263 kts | 112° |
| 2026-05-06 21:23 | 25.88010 | -80.95087 | 9225 ft | 255 kts | 112° |
| 2026-05-06 21:23 | 25.87318 | -80.93277 | 8973 ft | 256 kts | 113° |
| 2026-05-06 21:23 | 25.86595 | -80.91386 | 8775 ft | 276 kts | 113° |
| 2026-05-06 21:24 | 25.85835 | -80.89407 | 8512 ft | 280 kts | 113° |
| 2026-05-06 21:24 | 25.85072 | -80.87426 | 8266 ft | 279 kts | 113° |
| 2026-05-06 21:24 | 25.84320 | -80.85469 | 7993 ft | 280 kts | 113° |
| 2026-05-06 21:24 | 25.83551 | -80.83468 | 7700 ft | 275 kts | 113° |
| 2026-05-06 21:25 | 25.82817 | -80.81558 | 7410 ft | 270 kts | 113° |
| 2026-05-06 21:25 | 25.82077 | -80.79638 | 7136 ft | 272 kts | 113° |
| 2026-05-06 21:25 | 25.81333 | -80.77708 | 6875 ft | 273 kts | 113° |
| 2026-05-06 21:25 | 25.80590 | -80.75776 | 6596 ft | 269 kts | 113° |
| 2026-05-06 21:26 | 25.79861 | -80.73886 | 6319 ft | 267 kts | 113° |
| 2026-05-06 21:26 | 25.79129 | -80.71990 | 6049 ft | 268 kts | 113° |
| 2026-05-06 21:26 | 25.78391 | -80.70080 | 5776 ft | 270 kts | 113° |
| 2026-05-06 21:26 | 25.77656 | -80.68177 | 5493 ft | 267 kts | 113° |
| 2026-05-06 21:27 | 25.77084 | -80.66262 | 5200 ft | 258 kts | 95° |
| 2026-05-06 21:27 | 25.77160 | -80.64284 | 4975 ft | 260 kts | 85° |
| 2026-05-06 21:27 | 25.77284 | -80.62253 | 4706 ft | 268 kts | 86° |
| 2026-05-06 21:27 | 25.77382 | -80.60184 | 4427 ft | 266 kts | 87° |
| 2026-05-06 21:28 | 25.77486 | -80.58163 | 4148 ft | 260 kts | 86° |
| 2026-05-06 21:28 | 25.77586 | -80.56180 | 3892 ft | 256 kts | 86° |
| 2026-05-06 21:28 | 25.77672 | -80.54232 | 3686 ft | 249 kts | 87° |
| 2026-05-06 21:28 | 25.77750 | -80.52349 | 3461 ft | 240 kts | 87° |
| 2026-05-06 21:29 | 25.77823 | -80.50545 | 3301 ft | 228 kts | 87° |
| 2026-05-06 21:29 | 25.77895 | -80.48821 | 3080 ft | 219 kts | 87° |
| 2026-05-06 21:29 | 25.77966 | -80.47151 | 2816 ft | 214 kts | 87° |
| 2026-05-06 21:29 | 25.78032 | -80.45517 | 2531 ft | 210 kts | 87° |
| 2026-05-06 21:30 | 25.78098 | -80.43915 | 2267 ft | 203 kts | 87° |
| 2026-05-06 21:30 | 25.78139 | -80.42918 | 2130 ft | 189 kts | 87° |
| 2026-05-06 21:30 | 25.78198 | -80.41516 | 1857 ft | 176 kts | 87° |
| 2026-05-06 21:30 | 25.78255 | -80.40146 | 1633 ft | 177 kts | 87° |
| 2026-05-06 21:31 | 25.78311 | -80.38833 | 1385 ft | 163 kts | 88° |
| 2026-05-06 21:31 | 25.78358 | -80.37646 | 1190 ft | 149 kts | 88° |
| 2026-05-06 21:31 | 25.78420 | -80.36123 | 942 ft | 149 kts | 88° |
| 2026-05-06 21:31 | 25.78485 | -80.34991 | 746 ft | 145 kts | 88° |
| 2026-05-06 21:32 | 25.78509 | -80.34242 | 616 ft | 142 kts | 89° |
| 2026-05-06 21:32 | 25.78584 | -80.32093 | 199 ft | 138 kts | 88° |
| 2026-05-06 21:32 | 25.78632 | -80.31034 | 48 ft | 136 kts | 88° |
| 2026-05-06 21:33 | 25.78671 | -80.30081 | 25 ft | 105 kts | 87° |
| 2026-05-06 21:33 | 25.78697 | -80.29482 | 24 ft | 52 kts | 87° |
| 2026-05-06 21:33 | 25.78725 | -80.29252 | 27 ft | 22 kts | 66° |
| 2026-05-06 21:33 | 25.78824 | -80.29166 | 22 ft | 18 kts | 9° |
| 2026-05-06 21:34 | 25.78877 | -80.29173 | 19 ft | 4 kts | 334° |
| 2026-05-06 21:34 | 25.78899 | -80.29212 | 20 ft | 8 kts | 280° |
| 2026-05-06 21:34 | 25.78897 | -80.29279 | 22 ft | 9 kts | 267° |
| 2026-05-06 21:34 | 25.78894 | -80.29349 | 22 ft | 9 kts | 268° |
| 2026-05-06 21:35 | 25.78891 | -80.29418 | 24 ft | 9 kts | 267° |
| 2026-05-06 21:35 | 25.78889 | -80.29489 | 27 ft | 9 kts | 267° |
| 2026-05-06 21:35 | 25.78885 | -80.29563 | 30 ft | 11 kts | 267° |
| 2026-05-06 21:35 | 25.78882 | -80.29657 | 25 ft | 13 kts | 267° |
| 2026-05-06 21:36 | 25.78877 | -80.29767 | 25 ft | 15 kts | 267° |
| 2026-05-06 21:36 | 25.78872 | -80.29882 | 27 ft | 15 kts | 268° |
| 2026-05-06 21:36 | 25.78868 | -80.29999 | 26 ft | 16 kts | 267° |
| 2026-05-06 21:36 | 25.78862 | -80.30132 | 25 ft | 19 kts | 267° |
| 2026-05-06 21:37 | 25.78854 | -80.30286 | 23 ft | 21 kts | 267° |
| 2026-05-06 21:37 | 25.78849 | -80.30446 | 22 ft | 21 kts | 267° |
| 2026-05-06 21:37 | 25.78869 | -80.30556 | 22 ft | 12 kts | 342° |
| 2026-05-06 21:37 | 25.78937 | -80.30563 | 21 ft | 4 kts | 339° |
| 2026-05-06 21:38 | 25.78943 | -80.30597 | 20 ft | 6 kts | 269° |
| 2026-05-06 21:38 | 25.78942 | -80.30637 | 19 ft | 3 kts | 268° |
| 2026-05-06 21:38 | 25.78941 | -80.30644 | 19 ft | 0 kts | 268° |